LEBBLEXJ

Guest
Details From LEBB - Bilbao
To LEXJ - Santander
Flight Number -
Tags Generated
Created
Modified
Stats Distance 40 nm / 74 km
Max Altitude 0 ft / 0 m
Waypoints 2
Social Downloads 1
Likes 0
Share VATSIM

Download

Looking for another format? Having issues loading an existing format? Contact us
Advertisement - Login to hide

Notes

Generated

Route

LEBB LEXJ

ID Type Via Altitude Latitude Longitude Leg Dist Tot Dist Heading (true) Name
O LEBB APT - 0 ft / 0 m 43.30335˚ -2.93703˚ - 0 nm - -
O LEXJ APT - 0 ft / 0 m 43.43078˚ -3.83392˚ 39 nm 39 nm 281° / 281° -

Altitude Profile

Advertisement - Login to hide

LEBB

Details ICAO LEBB (BIO)
Name Bilbao
Region Spain
Timezone Europe/Madrid (UTC+2.0)
Stats Elevation 137 ft / 42 m (AMSL)
Location 43.301692° -2.917664°
Runways 2
Magnetic Variation 0.573° W

METAR

LEBB 261230Z VRB02KT 9999 SCT030CB 22/16 Q1011 TEMPO 3000 TSRA BKN030CB

Decode

TAF

TAF LEBB 261100Z 2612/2712 VRB06KT 9999 SCT020 BKN035 TX22/2615Z TN15/2705Z TEMPO 2612/2618 SHRA SCT030TCU PROB40 TEMPO 2612/2618 VRB15G25KT 3000 TSRA BKN010 BKN025CB PROB40 TEMPO 2621/2709 3000 BR BKN012

Decode

Departure Runways

ID Width Length Bearing (true) Bearing (mag) Surface Threshold Offset Overrun Length
10 148 ft / 45 m 6,569 ft / 2,002 m 96.66° 97.23° Asphalt 20 ft / 6 m 184 ft / 56 m
12 148 ft / 45 m 8,539 ft / 2,603 m 116.73° 117.30° Asphalt 20 ft / 6 m 197 ft / 60 m
28 148 ft / 45 m 6,569 ft / 2,002 m 276.68° 277.25° Asphalt 23 ft / 7 m 0 ft / 0 m
30 148 ft / 45 m 8,539 ft / 2,603 m 296.75° 297.32° Asphalt 1,509 ft / 460 m 171 ft / 52 m

LEXJ

Details ICAO LEXJ (SDR)
Name Santander
Region Spain
Timezone Europe/Madrid (UTC+2.0)
Stats Elevation 16 ft / 5 m (AMSL)
Location 43.427188° -3.820470°
Runways 1
Magnetic Variation 0.856° W

METAR

LEXJ 261230Z 29013KT 9999 4000NW TSRA SCT012 BKN020CB 17/17 Q1013

Decode

TAF

TAF AMD LEXJ 261205Z 2612/2709 32008KT 9000 FEW015 SCT025 TX20/2613Z TN14/2704Z TEMPO 2612/2616 4000 SHRA BKN012 BKN020TCU PROB40 TEMPO 2612/2616 2000 +SHRA TSRA BKN008 BKN020CB PROB40 TEMPO 2618/2706 4000 BR BKN010

Decode

Destination Runways

ID Width Length Bearing (true) Bearing (mag) Surface Threshold Offset Overrun Length
11 148 ft / 45 m 7,597 ft / 2,316 m 110.20° 111.06° Asphalt 0 ft / 0 m 98 ft / 30 m
29 148 ft / 45 m 7,597 ft / 2,316 m 290.22° 291.08° Asphalt 0 ft / 0 m 0 ft / 0 m

Approach Navaids

Runway Type Ident Frequency Range Bearing (true) Bearing (mag) Slope Elevation
29 Localiser STA 110.90 MHz 18 nm / 33 km 290.19° 291.05° - 16 ft / 5 m (AMSL)
29 Glidescope STA 110.90 MHz 10 nm / 19 km 290.21° 291.06° 3.00° 16 ft / 5 m (AMSL)
29 DME STA 110.90 MHz 18 nm / 33 km - - - 26 ft / 8 m (AMSL)

Popular Alternatives